sensor_id;sensor_type;location;lat;lon;timestamp;pressure;altitude;pressure_sealevel;temperature;humidity
19676;BME280;39539;52.202;9.876;2023-08-06T00:00:17;100074.72;;;14.80;100.00
19676;BME280;39539;52.202;9.876;2023-08-06T00:02:43;100079.97;;;14.70;100.00
19676;BME280;39539;52.202;9.876;2023-08-06T00:05:08;100063.16;;;14.52;100.00
19676;BME280;39539;52.202;9.876;2023-08-06T00:07:33;100078.72;;;14.55;100.00
19676;BME280;39539;52.202;9.876;2023-08-06T00:09:59;100056.25;;;14.56;100.00
19676;BME280;39539;52.202;9.876;2023-08-06T00:12:24;100073.81;;;14.69;100.00
19676;BME280;39539;52.202;9.876;2023-08-06T00:14:50;100064.91;;;14.64;100.00
19676;BME280;39539;52.202;9.876;2023-08-06T00:17:16;100041.38;;;14.66;100.00
19676;BME280;39539;52.202;9.876;2023-08-06T00:19:42;100041.22;;;14.72;100.00
19676;BME280;39539;52.202;9.876;2023-08-06T00:22:07;100047.78;;;14.87;100.00
19676;BME280;39539;52.202;9.876;2023-08-06T00:24:33;100031.41;;;14.83;100.00
19676;BME280;39539;52.202;9.876;2023-08-06T00:26:59;100028.84;;;14.93;100.00
19676;BME280;39539;52.202;9.876;2023-08-06T00:29:24;100036.09;;;14.93;100.00
19676;BME280;39539;52.202;9.876;2023-08-06T00:31:49;100026.69;;;14.90;100.00
19676;BME280;39539;52.202;9.876;2023-08-06T00:34:15;100024.06;;;14.95;100.00
19676;BME280;39539;52.202;9.876;2023-08-06T00:36:40;100025.97;;;15.00;100.00
19676;BME280;39539;52.202;9.876;2023-08-06T00:39:05;100016.91;;;15.01;100.00
19676;BME280;39539;52.202;9.876;2023-08-06T00:41:32;100008.31;;;14.99;100.00
19676;BME280;39539;52.202;9.876;2023-08-06T00:43:57;100004.25;;;14.96;100.00
19676;BME280;39539;52.202;9.876;2023-08-06T00:46:23;100002.34;;;14.92;100.00
19676;BME280;39539;52.202;9.876;2023-08-06T00:48:49;99997.25;;;14.90;100.00
19676;BME280;39539;52.202;9.876;2023-08-06T00:51:16;100000.22;;;14.94;100.00
19676;BME280;39539;52.202;9.876;2023-08-06T00:53:42;99991.34;;;14.88;100.00
19676;BME280;39539;52.202;9.876;2023-08-06T00:56:08;99994.28;;;14.87;100.00
19676;BME280;39539;52.202;9.876;2023-08-06T00:58:35;99988.34;;;14.85;100.00
19676;BME280;39539;52.202;9.876;2023-08-06T01:01:01;99981.84;;;14.75;100.00
19676;BME280;39539;52.202;9.876;2023-08-06T01:03:27;99981.00;;;14.70;100.00
19676;BME280;39539;52.202;9.876;2023-08-06T01:05:53;99976.31;;;14.60;100.00
19676;BME280;39539;52.202;9.876;2023-08-06T01:08:30;99990.56;;;14.66;100.00
19676;BME280;39539;52.202;9.876;2023-08-06T01:13:45;99975.63;;;14.70;100.00
19676;BME280;39539;52.202;9.876;2023-08-06T01:16:15;99972.63;;;14.66;100.00
19676;BME280;39539;52.202;9.876;2023-08-06T01:18:40;99972.75;;;14.76;100.00
19676;BME280;39539;52.202;9.876;2023-08-06T01:21:07;99970.13;;;14.81;100.00
19676;BME280;39539;52.202;9.876;2023-08-06T01:23:32;99969.06;;;14.82;100.00
19676;BME280;39539;52.202;9.876;2023-08-06T01:26:13;99966.38;;;14.82;100.00
19676;BME280;39539;52.202;9.876;2023-08-06T01:28:54;99971.53;;;14.62;100.00
19676;BME280;39539;52.202;9.876;2023-08-06T01:31:29;99960.00;;;14.40;100.00
19676;BME280;39539;52.202;9.876;2023-08-06T01:33:58;99958.03;;;14.30;100.00
19676;BME280;39539;52.202;9.876;2023-08-06T01:36:23;99961.88;;;14.39;100.00
19676;BME280;39539;52.202;9.876;2023-08-06T01:38:51;99951.50;;;14.43;100.00
19676;BME280;39539;52.202;9.876;2023-08-06T01:41:17;99959.06;;;14.51;100.00
19676;BME280;39539;52.202;9.876;2023-08-06T01:43:42;99950.75;;;14.47;100.00
19676;BME280;39539;52.202;9.876;2023-08-06T01:46:07;99942.66;;;14.42;100.00
19676;BME280;39539;52.202;9.876;2023-08-06T01:48:33;99942.91;;;14.41;100.00
19676;BME280;39539;52.202;9.876;2023-08-06T01:50:58;99930.00;;;14.32;100.00
19676;BME280;39539;52.202;9.876;2023-08-06T01:53:23;99928.28;;;14.26;100.00
19676;BME280;39539;52.202;9.876;2023-08-06T01:55:49;99937.75;;;14.34;100.00
19676;BME280;39539;52.202;9.876;2023-08-06T01:58:14;99929.88;;;14.22;100.00
19676;BME280;39539;52.202;9.876;2023-08-06T02:00:40;99933.13;;;14.29;100.00
19676;BME280;39539;52.202;9.876;2023-08-06T02:03:05;99927.19;;;14.22;100.00
19676;BME280;39539;52.202;9.876;2023-08-06T02:05:31;99919.59;;;14.14;100.00
19676;BME280;39539;52.202;9.876;2023-08-06T02:07:56;99915.31;;;14.13;100.00
19676;BME280;39539;52.202;9.876;2023-08-06T02:10:22;99929.78;;;14.17;100.00
19676;BME280;39539;52.202;9.876;2023-08-06T02:12:47;99922.78;;;14.11;100.00
19676;BME280;39539;52.202;9.876;2023-08-06T02:15:12;99935.22;;;14.22;100.00
19676;BME280;39539;52.202;9.876;2023-08-06T02:17:38;99928.50;;;14.20;100.00
19676;BME280;39539;52.202;9.876;2023-08-06T02:20:03;99935.22;;;14.22;100.00
19676;BME280;39539;52.202;9.876;2023-08-06T02:22:29;99930.97;;;14.26;100.00
19676;BME280;39539;52.202;9.876;2023-08-06T02:24:54;99933.13;;;14.29;100.00
19676;BME280;39539;52.202;9.876;2023-08-06T02:27:20;99926.75;;;14.30;100.00
19676;BME280;39539;52.202;9.876;2023-08-06T02:29:45;99933.22;;;14.34;100.00
19676;BME280;39539;52.202;9.876;2023-08-06T02:32:10;99931.84;;;14.32;100.00
19676;BME280;39539;52.202;9.876;2023-08-06T02:34:36;99926.75;;;14.30;100.00
19676;BME280;39539;52.202;9.876;2023-08-06T02:37:01;99922.22;;;14.31;100.00
19676;BME280;39539;52.202;9.876;2023-08-06T02:39:27;99915.50;;;14.28;100.00
19676;BME280;39539;52.202;9.876;2023-08-06T02:41:52;99903.38;;;14.21;100.00
19676;BME280;39539;52.202;9.876;2023-08-06T02:44:17;99906.88;;;14.21;100.00
19676;BME280;39539;52.202;9.876;2023-08-06T02:46:44;99903.94;;;14.23;100.00
19676;BME280;39539;52.202;9.876;2023-08-06T02:49:10;99891.13;;;14.25;100.00
19676;BME280;39539;52.202;9.876;2023-08-06T02:51:36;99889.56;;;14.29;100.00
19676;BME280;39539;52.202;9.876;2023-08-06T02:54:02;99879.66;;;14.29;100.00
19676;BME280;39539;52.202;9.876;2023-08-06T02:56:27;99874.38;;;14.34;100.00
19676;BME280;39539;52.202;9.876;2023-08-06T02:58:52;99864.75;;;14.33;100.00
19676;BME280;39539;52.202;9.876;2023-08-06T03:01:18;99855.63;;;14.29;100.00
19676;BME280;39539;52.202;9.876;2023-08-06T03:03:43;99870.16;;;14.38;100.00
19676;BME280;39539;52.202;9.876;2023-08-06T03:06:08;99855.69;;;14.34;100.00
19676;BME280;39539;52.202;9.876;2023-08-06T03:08:33;99860.56;;;14.43;100.00
19676;BME280;39539;52.202;9.876;2023-08-06T03:10:59;99859.53;;;14.44;100.00
19676;BME280;39539;52.202;9.876;2023-08-06T03:13:24;99852.81;;;14.41;100.00
19676;BME280;39539;52.202;9.876;2023-08-06T03:15:54;99854.38;;;14.37;100.00
19676;BME280;39539;52.202;9.876;2023-08-06T03:18:20;99847.16;;;14.37;100.00
19676;BME280;39539;52.202;9.876;2023-08-06T03:20:46;99839.56;;;14.29;100.00
19676;BME280;39539;52.202;9.876;2023-08-06T03:23:11;99843.06;;;14.30;100.00
19676;BME280;39539;52.202;9.876;2023-08-06T03:25:37;99833.63;;;14.22;100.00
19676;BME280;39539;52.202;9.876;2023-08-06T03:28:02;99830.09;;;14.17;100.00
19676;BME280;39539;52.202;9.876;2023-08-06T03:30:27;99835.25;;;14.23;100.00
19676;BME280;39539;52.202;9.876;2023-08-06T03:32:53;99835.56;;;14.27;100.00
19676;BME280;39539;52.202;9.876;2023-08-06T03:35:18;99840.06;;;14.26;100.00
19676;BME280;39539;52.202;9.876;2023-08-06T03:37:43;99843.25;;;14.23;100.00
19676;BME280;39539;52.202;9.876;2023-08-06T03:40:09;99834.19;;;14.24;100.00
19676;BME280;39539;52.202;9.876;2023-08-06T03:42:35;99836.59;;;14.26;100.00
19676;BME280;39539;52.202;9.876;2023-08-06T03:45:00;99832.50;;;14.18;100.00
19676;BME280;39539;52.202;9.876;2023-08-06T03:47:25;99836.19;;;14.12;100.00
19676;BME280;39539;52.202;9.876;2023-08-06T03:49:51;99831.09;;;14.10;100.00
19676;BME280;39539;52.202;9.876;2023-08-06T03:52:16;99826.28;;;14.07;100.00
19676;BME280;39539;52.202;9.876;2023-08-06T03:54:41;99818.69;;;13.99;100.00
19676;BME280;39539;52.202;9.876;2023-08-06T03:57:08;99824.34;;;14.03;100.00
19676;BME280;39539;52.202;9.876;2023-08-06T03:59:33;99821.09;;;14.01;100.00
19676;BME280;39539;52.202;9.876;2023-08-06T04:01:59;99814.66;;;13.97;100.00
19676;BME280;39539;52.202;9.876;2023-08-06T04:04:24;99809.03;;;13.98;100.00
19676;BME280;39539;52.202;9.876;2023-08-06T04:06:50;99812.53;;;13.99;100.00
19676;BME280;39539;52.202;9.876;2023-08-06T04:09:15;99802.34;;;13.96;100.00
19676;BME280;39539;52.202;9.876;2023-08-06T04:11:40;99806.13;;;14.00;100.00
19676;BME280;39539;52.202;9.876;2023-08-06T04:14:06;99807.81;;;14.06;100.00
19676;BME280;39539;52.202;9.876;2023-08-06T04:16:31;99803.59;;;14.10;100.00
19676;BME280;39539;52.202;9.876;2023-08-06T04:18:56;99811.03;;;14.08;100.00
19676;BME280;39539;52.202;9.876;2023-08-06T04:21:23;99815.94;;;14.16;100.00
19676;BME280;39539;52.202;9.876;2023-08-06T04:23:48;99818.09;;;14.19;100.00
19676;BME280;39539;52.202;9.876;2023-08-06T04:26:14;99802.50;;;14.11;100.00
19676;BME280;39539;52.202;9.876;2023-08-06T04:28:39;99817.31;;;14.24;100.00
19676;BME280;39539;52.202;9.876;2023-08-06T04:31:04;99810.09;;;14.19;100.00
19676;BME280;39539;52.202;9.876;2023-08-06T04:33:29;99815.44;;;14.19;100.00
19676;BME280;39539;52.202;9.876;2023-08-06T04:35:55;99826.19;;;14.24;100.00
19676;BME280;39539;52.202;9.876;2023-08-06T04:38:22;99820.31;;;14.27;100.00
19676;BME280;39539;52.202;9.876;2023-08-06T04:40:48;99825.16;;;14.30;100.00
19676;BME280;39539;52.202;9.876;2023-08-06T04:43:13;99814.47;;;14.30;100.00
19676;BME280;39539;52.202;9.876;2023-08-06T04:45:45;99820.13;;;14.34;100.00
19676;BME280;39539;52.202;9.876;2023-08-06T04:48:11;99814.78;;;14.34;100.00
19676;BME280;39539;52.202;9.876;2023-08-06T04:50:36;99819.44;;;14.44;100.00
19676;BME280;39539;52.202;9.876;2023-08-06T04:53:01;99836.69;;;14.58;100.00
19676;BME280;39539;52.202;9.876;2023-08-06T04:55:27;99833.53;;;14.66;100.00
19676;BME280;39539;52.202;9.876;2023-08-06T04:57:52;99835.50;;;14.76;100.00
19676;BME280;39539;52.202;9.876;2023-08-06T05:00:17;99825.16;;;14.85;100.00
19676;BME280;39539;52.202;9.876;2023-08-06T05:02:43;99823.03;;;14.87;100.00
19676;BME280;39539;52.202;9.876;2023-08-06T05:05:08;99827.91;;;15.00;100.00
19676;BME280;39539;52.202;9.876;2023-08-06T05:07:33;99822.06;;;15.03;100.00
19676;BME280;39539;52.202;9.876;2023-08-06T05:09:58;99813.53;;;15.11;100.00
19676;BME280;39539;52.202;9.876;2023-08-06T05:12:24;99813.84;;;15.15;100.00
19676;BME280;39539;52.202;9.876;2023-08-06T05:14:49;99816.31;;;15.21;100.00
19676;BME280;39539;52.202;9.876;2023-08-06T05:17:14;99811.50;;;15.23;100.00
19676;BME280;39539;52.202;9.876;2023-08-06T05:19:40;99810.97;;;15.26;100.00
19676;BME280;39539;52.202;9.876;2023-08-06T05:22:05;99820.63;;;15.27;100.00
19676;BME280;39539;52.202;9.876;2023-08-06T05:24:30;99817.38;;;15.20;100.00
19676;BME280;39539;52.202;9.876;2023-08-06T05:26:55;99826.97;;;15.16;100.00
19676;BME280;39539;52.202;9.876;2023-08-06T05:29:21;99813.53;;;15.11;100.00
19676;BME280;39539;52.202;9.876;2023-08-06T05:31:46;99810.34;;;15.14;100.00
19676;BME280;39539;52.202;9.876;2023-08-06T05:34:11;99814.13;;;15.18;100.00
19676;BME280;39539;52.202;9.876;2023-08-06T05:36:38;99799.63;;;15.09;100.00
19676;BME280;39539;52.202;9.876;2023-08-06T05:39:03;99791.66;;;15.19;100.00
19676;BME280;39539;52.202;9.876;2023-08-06T05:41:28;99803.03;;;15.42;100.00
19676;BME280;39539;52.202;9.876;2023-08-06T05:43:54;99809.00;;;15.54;100.00
19676;BME280;39539;52.202;9.876;2023-08-06T05:46:19;99807.16;;;15.60;100.00
19676;BME280;39539;52.202;9.876;2023-08-06T05:48:44;99812.31;;;15.71;100.00
19676;BME280;39539;52.202;9.876;2023-08-06T05:51:10;99807.25;;;15.80;100.00
19676;BME280;39539;52.202;9.876;2023-08-06T05:53:37;99812.41;;;16.07;100.00
19676;BME280;39539;52.202;9.876;2023-08-06T05:56:03;99808.19;;;16.32;100.00
19676;BME280;39539;52.202;9.876;2023-08-06T05:58:28;99796.94;;;16.50;100.00
19676;BME280;39539;52.202;9.876;2023-08-06T06:00:55;99790.00;;;16.80;100.00
19676;BME280;39539;52.202;9.876;2023-08-06T06:03:21;99785.69;;;16.94;100.00
19676;BME280;39539;52.202;9.876;2023-08-06T06:05:46;99787.22;;;17.26;100.00
19676;BME280;39539;52.202;9.876;2023-08-06T06:08:11;99776.50;;;17.91;100.00
19676;BME280;39539;52.202;9.876;2023-08-06T06:10:37;99766.34;;;18.61;100.00
19676;BME280;39539;52.202;9.876;2023-08-06T06:13:02;99775.22;;;19.44;100.00
19676;BME280;39539;52.202;9.876;2023-08-06T06:15:27;99754.25;;;19.84;99.61
19676;BME280;39539;52.202;9.876;2023-08-06T06:17:52;99747.63;;;20.14;98.51
19676;BME280;39539;52.202;9.876;2023-08-06T06:20:18;99748.88;;;20.88;93.08
19676;BME280;39539;52.202;9.876;2023-08-06T06:22:43;99753.69;;;22.10;87.66
19676;BME280;39539;52.202;9.876;2023-08-06T06:25:08;99734.28;;;23.72;76.97
19676;BME280;39539;52.202;9.876;2023-08-06T06:27:35;99736.00;;;25.11;73.57
19676;BME280;39539;52.202;9.876;2023-08-06T06:30:00;99728.56;;;26.01;67.84
19676;BME280;39539;52.202;9.876;2023-08-06T06:32:26;99718.63;;;27.08;63.10
19676;BME280;39539;52.202;9.876;2023-08-06T06:34:51;99702.16;;;27.94;59.70
19676;BME280;39539;52.202;9.876;2023-08-06T06:37:16;99702.31;;;28.89;56.21
19676;BME280;39539;52.202;9.876;2023-08-06T06:39:42;99703.91;;;29.92;52.88
19676;BME280;39539;52.202;9.876;2023-08-06T06:42:08;99677.81;;;30.87;50.74
19676;BME280;39539;52.202;9.876;2023-08-06T06:44:34;99680.63;;;32.08;47.82
19676;BME280;39539;52.202;9.876;2023-08-06T06:46:59;99663.28;;;32.89;46.14
19676;BME280;39539;52.202;9.876;2023-08-06T06:49:24;99646.44;;;33.71;44.20
19676;BME280;39539;52.202;9.876;2023-08-06T06:51:51;99651.88;;;32.39;45.03
19676;BME280;39539;52.202;9.876;2023-08-06T06:54:16;99638.56;;;31.13;48.32
19676;BME280;39539;52.202;9.876;2023-08-06T06:56:42;99638.28;;;33.12;45.45
19676;BME280;39539;52.202;9.876;2023-08-06T06:59:07;99632.00;;;34.42;43.10
19676;BME280;39539;52.202;9.876;2023-08-06T07:01:32;99626.69;;;35.51;40.34
19676;BME280;39539;52.202;9.876;2023-08-06T07:03:59;99619.78;;;34.25;41.61
19676;BME280;39539;52.202;9.876;2023-08-06T07:06:29;99630.25;;;35.59;42.51
19676;BME280;39539;52.202;9.876;2023-08-06T07:08:55;99626.56;;;35.87;39.46
19676;BME280;39539;52.202;9.876;2023-08-06T07:11:20;99630.25;;;36.74;39.27
19676;BME280;39539;52.202;9.876;2023-08-06T07:13:45;99626.75;;;37.77;37.75
19676;BME280;39539;52.202;9.876;2023-08-06T07:16:11;99631.22;;;36.98;37.65
19676;BME280;39539;52.202;9.876;2023-08-06T07:18:36;99622.13;;;36.94;37.21
19676;BME280;39539;52.202;9.876;2023-08-06T07:21:01;99630.69;;;37.45;36.80
19676;BME280;39539;52.202;9.876;2023-08-06T07:23:27;99630.19;;;37.84;35.76
19676;BME280;39539;52.202;9.876;2023-08-06T07:25:52;99615.63;;;37.49;37.08
19676;BME280;39539;52.202;9.876;2023-08-06T07:28:18;99623.84;;;35.77;37.71
19676;BME280;39539;52.202;9.876;2023-08-06T07:30:44;99622.00;;;36.22;38.22
19676;BME280;39539;52.202;9.876;2023-08-06T07:33:10;99610.31;;;34.76;39.33
19676;BME280;39539;52.202;9.876;2023-08-06T07:35:36;99609.16;;;33.07;41.60
19676;BME280;39539;52.202;9.876;2023-08-06T07:38:02;99614.34;;;30.42;46.79
19676;BME280;39539;52.202;9.876;2023-08-06T07:40:27;99612.94;;;30.52;47.10
19676;BME280;39539;52.202;9.876;2023-08-06T07:42:53;99609.50;;;30.13;48.21
19676;BME280;39539;52.202;9.876;2023-08-06T07:45:19;99629.78;;;30.08;49.23
19676;BME280;39539;52.202;9.876;2023-08-06T07:47:44;99620.91;;;29.18;50.95
19676;BME280;39539;52.202;9.876;2023-08-06T07:50:10;99620.31;;;29.08;51.19
19676;BME280;39539;52.202;9.876;2023-08-06T07:52:35;99632.25;;;29.36;50.44
19676;BME280;39539;52.202;9.876;2023-08-06T07:55:01;99635.25;;;29.66;50.62
19676;BME280;39539;52.202;9.876;2023-08-06T07:57:30;99608.66;;;30.09;48.63
19676;BME280;39539;52.202;9.876;2023-08-06T07:59:55;99597.16;;;29.80;49.80
19676;BME280;39539;52.202;9.876;2023-08-06T08:02:21;99616.72;;;28.25;52.13
19676;BME280;39539;52.202;9.876;2023-08-06T08:04:46;99615.19;;;27.96;53.09
19676;BME280;39539;52.202;9.876;2023-08-06T08:07:12;99603.31;;;27.76;55.32
19676;BME280;39539;52.202;9.876;2023-08-06T08:09:38;99619.06;;;27.95;55.09
19676;BME280;39539;52.202;9.876;2023-08-06T08:12:03;99617.09;;;28.39;54.13
19676;BME280;39539;52.202;9.876;2023-08-06T08:14:29;99613.69;;;29.45;52.25
19676;BME280;39539;52.202;9.876;2023-08-06T08:16:58;99623.69;;;30.87;49.96
19676;BME280;39539;52.202;9.876;2023-08-06T08:19:24;99606.47;;;31.81;47.80
19676;BME280;39539;52.202;9.876;2023-08-06T08:21:49;99588.22;;;31.62;47.95
19676;BME280;39539;52.202;9.876;2023-08-06T08:24:14;99599.00;;;31.82;47.39
19676;BME280;39539;52.202;9.876;2023-08-06T08:26:39;99580.94;;;31.43;47.32
19676;BME280;39539;52.202;9.876;2023-08-06T08:29:05;99583.09;;;30.74;48.17
19676;BME280;39539;52.202;9.876;2023-08-06T08:31:31;99593.44;;;31.37;46.65
19676;BME280;39539;52.202;9.876;2023-08-06T08:33:56;99594.81;;;31.54;45.29
19676;BME280;39539;52.202;9.876;2023-08-06T08:36:23;99587.66;;;31.19;48.00
19676;BME280;39539;52.202;9.876;2023-08-06T08:38:48;99581.28;;;30.81;46.66
19676;BME280;39539;52.202;9.876;2023-08-06T08:41:15;99574.69;;;30.86;47.17
19676;BME280;39539;52.202;9.876;2023-08-06T08:43:41;99587.63;;;31.80;45.39
19676;BME280;39539;52.202;9.876;2023-08-06T08:46:08;99571.75;;;31.62;44.72
19676;BME280;39539;52.202;9.876;2023-08-06T08:48:34;99568.72;;;32.15;45.30
19676;BME280;39539;52.202;9.876;2023-08-06T08:50:59;99564.00;;;33.30;43.08
19676;BME280;39539;52.202;9.876;2023-08-06T08:53:26;99572.06;;;33.92;42.73
19676;BME280;39539;52.202;9.876;2023-08-06T08:55:52;99561.22;;;32.09;43.71
19676;BME280;39539;52.202;9.876;2023-08-06T08:58:18;99576.38;;;33.90;42.80
19676;BME280;39539;52.202;9.876;2023-08-06T09:00:45;99557.13;;;34.40;40.28
19676;BME280;39539;52.202;9.876;2023-08-06T09:03:11;99547.16;;;33.60;42.32
19676;BME280;39539;52.202;9.876;2023-08-06T09:05:36;99551.97;;;34.67;42.28
19676;BME280;39539;52.202;9.876;2023-08-06T09:08:08;99550.53;;;35.43;40.54
19676;BME280;39539;52.202;9.876;2023-08-06T09:10:36;99561.84;;;35.70;39.48
19676;BME280;39539;52.202;9.876;2023-08-06T09:13:02;99554.22;;;35.04;41.72
19676;BME280;39539;52.202;9.876;2023-08-06T09:15:29;99552.50;;;35.43;40.66
19676;BME280;39539;52.202;9.876;2023-08-06T09:17:55;99548.25;;;35.94;39.95
19676;BME280;39539;52.202;9.876;2023-08-06T09:20:21;99548.69;;;36.37;38.34
19676;BME280;39539;52.202;9.876;2023-08-06T09:22:47;99544.44;;;36.71;38.30
19676;BME280;39539;52.202;9.876;2023-08-06T09:25:22;99545.31;;;36.64;37.44
19676;BME280;39539;52.202;9.876;2023-08-06T09:27:50;99549.84;;;36.81;38.53
19676;BME280;39539;52.202;9.876;2023-08-06T09:30:33;99547.28;;;37.63;36.31
19676;BME280;39539;52.202;9.876;2023-08-06T09:32:59;99540.31;;;37.51;35.85
19676;BME280;39539;52.202;9.876;2023-08-06T09:35:28;99542.84;;;37.92;36.79
19676;BME280;39539;52.202;9.876;2023-08-06T09:37:54;99539.69;;;37.67;38.10
19676;BME280;39539;52.202;9.876;2023-08-06T09:42:51;99555.63;;;36.98;38.35
19676;BME280;39539;52.202;9.876;2023-08-06T09:45:17;99554.34;;;37.67;37.18
19676;BME280;39539;52.202;9.876;2023-08-06T09:47:42;99542.59;;;35.49;38.33
19676;BME280;39539;52.202;9.876;2023-08-06T09:50:20;99529.03;;;32.13;41.89
19676;BME280;39539;52.202;9.876;2023-08-06T09:52:50;99547.00;;;29.76;47.42
19676;BME280;39539;52.202;9.876;2023-08-06T09:55:18;99553.47;;;29.09;48.20
19676;BME280;39539;52.202;9.876;2023-08-06T09:57:43;99556.25;;;27.39;53.36
19676;BME280;39539;52.202;9.876;2023-08-06T10:00:10;99565.94;;;28.40;50.55
19676;BME280;39539;52.202;9.876;2023-08-06T10:02:39;99572.94;;;29.43;49.57
19676;BME280;39539;52.202;9.876;2023-08-06T10:05:06;99559.63;;;28.87;48.15
19676;BME280;39539;52.202;9.876;2023-08-06T10:07:33;99563.16;;;28.87;48.96
19676;BME280;39539;52.202;9.876;2023-08-06T10:09:59;99558.28;;;28.46;48.58
19676;BME280;39539;52.202;9.876;2023-08-06T10:12:27;99570.53;;;30.23;46.70
19676;BME280;39539;52.202;9.876;2023-08-06T10:14:55;99564.16;;;29.73;46.63
19676;BME280;39539;52.202;9.876;2023-08-06T10:17:23;99559.78;;;30.37;45.78
19676;BME280;39539;52.202;9.876;2023-08-06T10:19:49;99556.56;;;30.81;47.48
19676;BME280;39539;52.202;9.876;2023-08-06T10:22:16;99564.31;;;32.07;43.49
19676;BME280;39539;52.202;9.876;2023-08-06T10:24:54;99545.44;;;33.13;42.26
19676;BME280;39539;52.202;9.876;2023-08-06T10:32:54;99526.50;;;33.04;42.11
19676;BME280;39539;52.202;9.876;2023-08-06T10:35:37;99517.69;;;32.77;43.78
19676;BME280;39539;52.202;9.876;2023-08-06T10:40:29;99501.75;;;29.43;46.32
19676;BME280;39539;52.202;9.876;2023-08-06T10:43:07;99499.38;;;28.16;48.87
19676;BME280;39539;52.202;9.876;2023-08-06T10:45:35;99502.09;;;27.85;50.54
19676;BME280;39539;52.202;9.876;2023-08-06T10:48:01;99504.31;;;27.51;52.12
19676;BME280;39539;52.202;9.876;2023-08-06T10:50:26;99499.09;;;26.77;54.64
19676;BME280;39539;52.202;9.876;2023-08-06T10:52:53;99505.56;;;26.85;52.14
19676;BME280;39539;52.202;9.876;2023-08-06T10:55:29;99508.38;;;27.01;50.87
19676;BME280;39539;52.202;9.876;2023-08-06T10:57:56;99494.97;;;26.96;52.36
19676;BME280;39539;52.202;9.876;2023-08-06T11:00:23;99495.63;;;26.64;55.75
19676;BME280;39539;52.202;9.876;2023-08-06T11:02:49;99502.09;;;26.48;56.36
19676;BME280;39539;52.202;9.876;2023-08-06T11:05:15;99482.78;;;25.25;53.79
19676;BME280;39539;52.202;9.876;2023-08-06T11:07:43;99489.09;;;24.75;56.33
19676;BME280;39539;52.202;9.876;2023-08-06T11:10:11;99490.16;;;24.61;56.34
19676;BME280;39539;52.202;9.876;2023-08-06T11:12:37;99491.22;;;24.90;56.00
19676;BME280;39539;52.202;9.876;2023-08-06T11:15:04;99501.59;;;25.18;60.09
19676;BME280;39539;52.202;9.876;2023-08-06T11:17:32;99504.44;;;25.54;59.44
19676;BME280;39539;52.202;9.876;2023-08-06T11:20:01;99497.44;;;25.33;60.74
19676;BME280;39539;52.202;9.876;2023-08-06T11:22:27;99488.09;;;24.58;54.08
19676;BME280;39539;52.202;9.876;2023-08-06T11:24:53;99498.19;;;24.79;53.87
19676;BME280;39539;52.202;9.876;2023-08-06T11:27:18;99483.13;;;25.23;54.82
19676;BME280;39539;52.202;9.876;2023-08-06T11:29:45;99462.47;;;24.00;56.39
19676;BME280;39539;52.202;9.876;2023-08-06T11:32:11;99472.41;;;24.26;54.79
19676;BME280;39539;52.202;9.876;2023-08-06T11:34:40;99490.44;;;24.69;54.54
19676;BME280;39539;52.202;9.876;2023-08-06T11:37:08;99488.97;;;24.92;53.04
19676;BME280;39539;52.202;9.876;2023-08-06T11:39:37;99485.03;;;25.44;54.94
19676;BME280;39539;52.202;9.876;2023-08-06T11:42:08;99485.88;;;25.69;55.31
19676;BME280;39539;52.202;9.876;2023-08-06T11:44:36;99481.31;;;25.61;53.29
19676;BME280;39539;52.202;9.876;2023-08-06T11:47:03;99481.25;;;25.82;53.13
19676;BME280;39539;52.202;9.876;2023-08-06T11:49:41;99477.34;;;26.04;53.18
19676;BME280;39539;52.202;9.876;2023-08-06T11:52:25;99468.22;;;25.42;51.84
19676;BME280;39539;52.202;9.876;2023-08-06T11:55:02;99470.16;;;25.41;52.99
19676;BME280;39539;52.202;9.876;2023-08-06T11:57:39;99457.13;;;24.93;52.32
19676;BME280;39539;52.202;9.876;2023-08-06T12:00:11;99450.19;;;24.83;53.52
19676;BME280;39539;52.202;9.876;2023-08-06T12:02:40;99456.50;;;24.75;54.24
19676;BME280;39539;52.202;9.876;2023-08-06T12:05:20;99465.03;;;25.06;56.12
19676;BME280;39539;52.202;9.876;2023-08-06T12:07:54;99459.59;;;25.06;55.52
19676;BME280;39539;52.202;9.876;2023-08-06T12:10:27;99461.03;;;25.25;56.96
19676;BME280;39539;52.202;9.876;2023-08-06T12:12:53;99464.97;;;25.15;59.20
19676;BME280;39539;52.202;9.876;2023-08-06T12:15:19;99468.81;;;24.93;60.65
19676;BME280;39539;52.202;9.876;2023-08-06T12:17:45;99450.63;;;24.34;57.67
19676;BME280;39539;52.202;9.876;2023-08-06T12:20:10;99443.84;;;23.90;61.38
19676;BME280;39539;52.202;9.876;2023-08-06T12:22:36;99451.91;;;23.60;59.55
19676;BME280;39539;52.202;9.876;2023-08-06T12:25:08;99459.72;;;23.62;59.73
19676;BME280;39539;52.202;9.876;2023-08-06T12:27:35;99459.38;;;23.63;57.80
19676;BME280;39539;52.202;9.876;2023-08-06T12:30:02;99463.16;;;23.88;57.32
19676;BME280;39539;52.202;9.876;2023-08-06T12:32:29;99459.03;;;24.20;62.86
19676;BME280;39539;52.202;9.876;2023-08-06T12:34:55;99461.91;;;24.54;58.70
19676;BME280;39539;52.202;9.876;2023-08-06T12:37:20;99472.50;;;24.68;59.18
19676;BME280;39539;52.202;9.876;2023-08-06T12:39:46;99465.84;;;24.86;60.42
19676;BME280;39539;52.202;9.876;2023-08-06T12:42:12;99477.13;;;25.18;61.95
19676;BME280;39539;52.202;9.876;2023-08-06T12:44:37;99467.44;;;25.41;63.64
19676;BME280;39539;52.202;9.876;2023-08-06T12:47:02;99466.75;;;25.44;61.86
19676;BME280;39539;52.202;9.876;2023-08-06T12:49:28;99479.56;;;25.44;56.09
19676;BME280;39539;52.202;9.876;2023-08-06T12:51:56;99475.97;;;25.52;60.68
19676;BME280;39539;52.202;9.876;2023-08-06T12:54:25;99477.50;;;25.74;61.86
19676;BME280;39539;52.202;9.876;2023-08-06T12:56:52;99458.16;;;25.42;54.48
19676;BME280;39539;52.202;9.876;2023-08-06T12:59:18;99460.22;;;25.58;52.83
19676;BME280;39539;52.202;9.876;2023-08-06T13:01:44;99459.63;;;25.85;51.26
19676;BME280;39539;52.202;9.876;2023-08-06T13:04:10;99442.44;;;25.15;54.97